Wetterdaten: Woche 11.04.11 - 17.04.11 (KW15)
Datum Zeit Temperatur Luftfeuchte Luftdruck Niederschlag Windrichtung Sonnenschein Solar Wind
11.04.2011 00:00 8,6 C 68 % 1021,6 hPa 0,0 l/m O-NO 0,00 h 0 W/m 1,7 km/h (1 Bft)
11.04.2011 01:00 7,9 C 72 % 1021,5 hPa 0,0 l/m NW 0,00 h 0 W/m 3,9 km/h (1 Bft)
11.04.2011 02:00 6,8 C 75 % 1021,4 hPa 0,0 l/m NW 0,00 h 0 W/m 2,7 km/h (1 Bft)
11.04.2011 03:00 6,4 C 77 % 1021,1 hPa 0,0 l/m NW 0,00 h 0 W/m 5,3 km/h (1 Bft)
11.04.2011 04:00 6,4 C 74 % 1021,0 hPa 0,0 l/m N-NW 0,00 h 0 W/m 8,6 km/h (2 Bft)
11.04.2011 05:00 6,2 C 74 % 1020,9 hPa 0,0 l/m N-NW 0,00 h 0 W/m 8,8 km/h (2 Bft)
11.04.2011 06:00 5,5 C 77 % 1020,9 hPa 0,0 l/m N-NW 0,00 h 9 W/m 5,9 km/h (2 Bft)
11.04.2011 07:00 5,8 C 77 % 1021,1 hPa 0,0 l/m N-NW 0,17 h 63 W/m 2,9 km/h (1 Bft)
11.04.2011 08:00 7,6 C 72 % 1021,5 hPa 0,0 l/m N-NW 1,00 h 219 W/m 5,3 km/h (1 Bft)
11.04.2011 09:00 10,0 C 65 % 1021,4 hPa 0,0 l/m N-NO 1,00 h 412 W/m 7,8 km/h (2 Bft)
11.04.2011 10:00 12,8 C 57 % 1021,0 hPa 0,0 l/m O-SO 1,00 h 627 W/m 4,7 km/h (1 Bft)
11.04.2011 11:00 15,5 C 49 % 1020,9 hPa 0,0 l/m O-SO 1,00 h 765 W/m 5,3 km/h (1 Bft)
11.04.2011 12:00 18,0 C 41 % 1020,6 hPa 0,0 l/m SO 1,00 h 833 W/m 7,1 km/h (2 Bft)
11.04.2011 13:00 19,4 C 37 % 1019,8 hPa 0,0 l/m NO 1,00 h 819 W/m 8,0 km/h (2 Bft)
11.04.2011 14:00 20,2 C 32 % 1019,3 hPa 0,0 l/m N-NO 1,00 h 744 W/m 8,0 km/h (2 Bft)
11.04.2011 15:00 20,6 C 31 % 1018,6 hPa 0,0 l/m N 1,00 h 672 W/m 9,3 km/h (2 Bft)
11.04.2011 16:00 20,8 C 30 % 1018,0 hPa 0,0 l/m W-NW 1,00 h 527 W/m 8,9 km/h (2 Bft)
11.04.2011 17:00 20,9 C 29 % 1017,5 hPa 0,0 l/m SW 0,92 h 312 W/m 9,1 km/h (2 Bft)
11.04.2011 18:00 20,0 C 34 % 1017,2 hPa 0,0 l/m W-SW 0,17 h 109 W/m 8,2 km/h (2 Bft)
11.04.2011 19:00 18,5 C 41 % 1017,4 hPa 0,0 l/m SW 0,00 h 31 W/m 8,9 km/h (2 Bft)
11.04.2011 20:00 16,5 C 44 % 1017,7 hPa 0,0 l/m W-SW 0,00 h 0 W/m 7,4 km/h (2 Bft)
11.04.2011 21:00 15,6 C 44 % 1017,7 hPa 0,0 l/m W-NW 0,00 h 0 W/m 10,3 km/h (2 Bft)
11.04.2011 22:00 15,5 C 43 % 1017,7 hPa 0,0 l/m W 0,00 h 0 W/m 9,9 km/h (2 Bft)
11.04.2011 23:00 14,0 C 50 % 1017,6 hPa 0,0 l/m W 0,00 h 0 W/m 5,9 km/h (2 Bft)
12.04.2011 00:00 11,7 C 61 % 1017,5 hPa 0,0 l/m W 0,00 h 0 W/m 2,5 km/h (1 Bft)
12.04.2011 01:00 10,1 C 68 % 1017,3 hPa 0,0 l/m N 0,00 h 0 W/m 0,7 km/h (0 Bft)
12.04.2011 02:00 9,4 C 71 % 1017,1 hPa 0,0 l/m N 0,00 h 0 W/m 0,8 km/h (0 Bft)
12.04.2011 03:00 8,8 C 74 % 1016,6 hPa 0,0 l/m N 0,00 h 0 W/m 1,2 km/h (1 Bft)
12.04.2011 04:00 9,8 C 74 % 1016,3 hPa 0,0 l/m W-SW 0,00 h 0 W/m 7,5 km/h (2 Bft)
12.04.2011 05:00 10,3 C 77 % 1015,8 hPa 0,0 l/m SW 0,00 h 0 W/m 11,0 km/h (2 Bft)
12.04.2011 06:00 11,6 C 81 % 1015,8 hPa 0,0 l/m W 0,00 h 0 W/m 14,9 km/h (3 Bft)
12.04.2011 07:00 12,0 C 81 % 1015,9 hPa 0,0 l/m W-SW 0,00 h 17 W/m 13,2 km/h (3 Bft)
12.04.2011 08:00 12,0 C 82 % 1016,2 hPa 0,0 l/m W-SW 0,00 h 33 W/m 14,4 km/h (3 Bft)
12.04.2011 09:00 12,0 C 79 % 1016,4 hPa 0,0 l/m W-NW 0,17 h 159 W/m 25,2 km/h (4 Bft)
12.04.2011 10:00 9,8 C 78 % 1017,6 hPa 0,0 l/m N 0,00 h 67 W/m 32,1 km/h (5 Bft)
12.04.2011 11:00 7,4 C 82 % 1018,5 hPa 0,0 l/m N-NW 0,00 h 140 W/m 20,9 km/h (4 Bft)
12.04.2011 12:00 7,8 C 77 % 1018,9 hPa 0,0 l/m W-NW 0,00 h 90 W/m 14,5 km/h (3 Bft)
12.04.2011 13:00 9,2 C 66 % 1019,0 hPa 0,0 l/m W-NW 0,00 h 181 W/m 16,9 km/h (3 Bft)
12.04.2011 14:00 10,7 C 51 % 1019,3 hPa 0,0 l/m W-NW 0,00 h 267 W/m 22,9 km/h (4 Bft)
12.04.2011 15:00 11,2 C 47 % 1019,2 hPa 0,0 l/m W 0,17 h 298 W/m 22,3 km/h (4 Bft)
12.04.2011 16:00 10,2 C 55 % 1019,6 hPa 0,0 l/m N 0,25 h 245 W/m 20,5 km/h (4 Bft)
12.04.2011 17:00 9,1 C 58 % 1020,0 hPa 0,0 l/m W-NW 0,00 h 51 W/m 22,7 km/h (4 Bft)
12.04.2011 18:00 7,3 C 68 % 1020,9 hPa 0,0 l/m NW 0,00 h 36 W/m 25,1 km/h (4 Bft)
12.04.2011 19:00 4,6 C 81 % 1021,7 hPa 0,0 l/m N 0,00 h 19 W/m 13,0 km/h (3 Bft)
12.04.2011 20:00 4,4 C 82 % 1022,2 hPa 0,0 l/m W-NW 0,00 h 0 W/m 10,8 km/h (2 Bft)
12.04.2011 21:00 4,2 C 82 % 1022,7 hPa 0,0 l/m NW 0,00 h 0 W/m 10,8 km/h (2 Bft)
12.04.2011 22:00 3,8 C 84 % 1023,3 hPa 0,0 l/m NW 0,00 h 0 W/m 11,7 km/h (2 Bft)
12.04.2011 23:00 3,7 C 83 % 1023,6 hPa 0,0 l/m NW 0,00 h 0 W/m 12,1 km/h (2 Bft)
13.04.2011 00:00 3,6 C 83 % 1023,4 hPa 0,0 l/m W-NW 0,00 h 0 W/m 6,8 km/h (2 Bft)
13.04.2011 01:00 3,0 C 84 % 1023,2 hPa 0,0 l/m W-NW 0,00 h 0 W/m 7,6 km/h (2 Bft)
13.04.2011 02:00 2,4 C 85 % 1023,0 hPa 0,0 l/m W-NW 0,00 h 0 W/m 5,2 km/h (1 Bft)
13.04.2011 03:00 1,8 C 87 % 1022,9 hPa 0,0 l/m W-NW 0,00 h 0 W/m 7,3 km/h (2 Bft)
13.04.2011 04:00 2,1 C 86 % 1022,7 hPa 0,0 l/m W 0,00 h 0 W/m 10,9 km/h (2 Bft)
13.04.2011 05:00 1,6 C 87 % 1022,6 hPa 0,0 l/m W-SW 0,00 h 0 W/m 8,6 km/h (2 Bft)
13.04.2011 06:00 1,1 C 88 % 1022,4 hPa 0,0 l/m W-NW 0,00 h 10 W/m 9,5 km/h (2 Bft)
13.04.2011 07:00 1,3 C 86 % 1022,9 hPa 0,0 l/m W-NW 0,25 h 62 W/m 13,2 km/h (3 Bft)
13.04.2011 08:00 2,8 C 80 % 1023,1 hPa 0,0 l/m W-NW 1,00 h 300 W/m 13,8 km/h (3 Bft)
13.04.2011 09:00 4,1 C 73 % 1023,1 hPa 0,0 l/m W-NW 0,67 h 401 W/m 18,6 km/h (3 Bft)
13.04.2011 10:00 4,8 C 67 % 1023,2 hPa 0,0 l/m W-NW 0,17 h 289 W/m 15,3 km/h (3 Bft)
13.04.2011 11:00 5,5 C 62 % 1023,2 hPa 0,0 l/m W-NW 0,08 h 224 W/m 14,6 km/h (3 Bft)
13.04.2011 12:00 6,4 C 57 % 1022,8 hPa 0,0 l/m W 0,00 h 263 W/m 18,2 km/h (3 Bft)
13.04.2011 13:00 7,6 C 52 % 1022,1 hPa 0,0 l/m W-NW 0,50 h 575 W/m 18,1 km/h (3 Bft)
13.04.2011 14:00 7,9 C 49 % 1021,5 hPa 0,0 l/m W-NW 0,33 h 444 W/m 17,2 km/h (3 Bft)
13.04.2011 15:00 9,1 C 44 % 1020,9 hPa 0,0 l/m W-NW 0,42 h 445 W/m 18,4 km/h (3 Bft)
13.04.2011 16:00 9,1 C 42 % 1020,5 hPa 0,0 l/m W 0,33 h 343 W/m 17,4 km/h (3 Bft)
13.04.2011 17:00 9,0 C 42 % 1020,3 hPa 0,0 l/m NW 0,25 h 212 W/m 14,6 km/h (3 Bft)
13.04.2011 18:00 8,4 C 43 % 1020,4 hPa 0,0 l/m W-NW 0,25 h 117 W/m 12,9 km/h (3 Bft)
13.04.2011 19:00 7,7 C 48 % 1020,3 hPa 0,0 l/m N-NW 0,00 h 29 W/m 4,5 km/h (1 Bft)
13.04.2011 20:00 5,9 C 59 % 1020,4 hPa 0,0 l/m N 0,00 h 0 W/m 2,9 km/h (1 Bft)
13.04.2011 21:00 5,2 C 62 % 1020,3 hPa 0,0 l/m N 0,00 h 0 W/m 2,0 km/h (1 Bft)
13.04.2011 22:00 3,6 C 70 % 1020,2 hPa 0,0 l/m NW 0,00 h 0 W/m 1,9 km/h (1 Bft)
13.04.2011 23:00 3,1 C 74 % 1019,8 hPa 0,0 l/m N 0,00 h 0 W/m 0,0 km/h (0 Bft)
14.04.2011 00:00 2,0 C 77 % 1019,4 hPa 0,0 l/m N 0,00 h 0 W/m 0,0 km/h (0 Bft)
14.04.2011 01:00 1,1 C 80 % 1019,0 hPa 0,0 l/m N 0,00 h 0 W/m 0,0 km/h (0 Bft)
14.04.2011 02:00 0,4 C 84 % 1018,6 hPa 0,0 l/m N 0,00 h 0 W/m 0,0 km/h (0 Bft)
14.04.2011 03:00 -0,1 C 87 % 1018,1 hPa 0,0 l/m N 0,00 h 0 W/m 0,0 km/h (0 Bft)
14.04.2011 04:00 -0,6 C 89 % 1017,7 hPa 0,0 l/m N 0,00 h 0 W/m 0,0 km/h (0 Bft)
14.04.2011 05:00 -0,3 C 90 % 1017,3 hPa 0,0 l/m N 0,00 h 0 W/m 0,0 km/h (0 Bft)
14.04.2011 06:00 -0,1 C 90 % 1017,2 hPa 0,0 l/m N 0,00 h 10 W/m 0,5 km/h (0 Bft)
14.04.2011 07:00 0,4 C 89 % 1017,2 hPa 0,0 l/m N 0,00 h 49 W/m 0,1 km/h (0 Bft)
14.04.2011 08:00 1,8 C 86 % 1017,4 hPa 0,0 l/m N 0,00 h 114 W/m 1,5 km/h (1 Bft)
14.04.2011 09:00 4,0 C 79 % 1017,4 hPa 0,0 l/m NW 0,00 h 202 W/m 4,1 km/h (1 Bft)
14.04.2011 10:00 6,8 C 64 % 1017,4 hPa 0,0 l/m NO 0,58 h 362 W/m 6,3 km/h (2 Bft)
14.04.2011 11:00 8,8 C 55 % 1017,3 hPa 0,0 l/m O-SO 1,00 h 558 W/m 10,1 km/h (2 Bft)
14.04.2011 12:00 9,7 C 49 % 1016,8 hPa 0,0 l/m O 0,58 h 479 W/m 13,6 km/h (3 Bft)
14.04.2011 13:00 10,1 C 47 % 1016,3 hPa 0,0 l/m SO 0,50 h 495 W/m 12,4 km/h (3 Bft)
14.04.2011 14:00 9,0 C 52 % 1016,3 hPa 0,0 l/m N 0,00 h 216 W/m 17,2 km/h (3 Bft)
14.04.2011 15:00 9,4 C 48 % 1015,8 hPa 0,0 l/m NO 0,17 h 303 W/m 11,4 km/h (2 Bft)
14.04.2011 16:00 10,1 C 46 % 1015,2 hPa 0,0 l/m O-NO 0,67 h 344 W/m 10,5 km/h (2 Bft)
14.04.2011 17:00 10,2 C 48 % 1015,0 hPa 0,0 l/m O 0,42 h 243 W/m 13,7 km/h (3 Bft)
14.04.2011 18:00 8,9 C 53 % 1015,4 hPa 0,0 l/m NO 0,00 h 90 W/m 15,3 km/h (3 Bft)
14.04.2011 19:00 8,0 C 58 % 1015,7 hPa 0,0 l/m NO 0,00 h 27 W/m 12,2 km/h (2 Bft)
14.04.2011 20:00 6,8 C 66 % 1016,1 hPa 0,0 l/m O 0,00 h 5 W/m 4,5 km/h (1 Bft)
14.04.2011 21:00 5,0 C 75 % 1016,4 hPa 0,0 l/m N 0,00 h 0 W/m 0,7 km/h (0 Bft)
14.04.2011 22:00 3,7 C 80 % 1016,5 hPa 0,0 l/m N 0,00 h 0 W/m 1,3 km/h (1 Bft)
14.04.2011 23:00 2,6 C 84 % 1016,4 hPa 0,0 l/m N 0,00 h 0 W/m 0,5 km/h (0 Bft)
15.04.2011 00:00 1,7 C 87 % 1016,4 hPa 0,0 l/m N 0,00 h 0 W/m 0,1 km/h (0 Bft)
15.04.2011 01:00 1,1 C 89 % 1016,4 hPa 0,0 l/m N 0,00 h 0 W/m 0,0 km/h (0 Bft)
15.04.2011 02:00 0,8 C 90 % 1016,2 hPa 0,0 l/m NO 0,00 h 0 W/m 3,3 km/h (1 Bft)
15.04.2011 03:00 0,8 C 88 % 1016,1 hPa 0,0 l/m N 0,00 h 0 W/m 4,7 km/h (1 Bft)
15.04.2011 04:00 0,5 C 89 % 1016,1 hPa 0,0 l/m N 0,00 h 0 W/m 4,8 km/h (1 Bft)
15.04.2011 05:00 0,1 C 90 % 1016,0 hPa 0,0 l/m N 0,00 h 0 W/m 4,1 km/h (1 Bft)
15.04.2011 06:00 -0,3 C 92 % 1016,4 hPa 0,0 l/m N 0,08 h 11 W/m 4,1 km/h (1 Bft)
15.04.2011 07:00 0,5 C 91 % 1016,8 hPa 0,0 l/m N 0,75 h 112 W/m 5,5 km/h (1 Bft)
15.04.2011 08:00 2,9 C 85 % 1017,1 hPa 0,0 l/m NO 1,00 h 326 W/m 6,7 km/h (2 Bft)
15.04.2011 09:00 5,8 C 73 % 1017,1 hPa 0,0 l/m O-NO 1,00 h 524 W/m 16,0 km/h (3 Bft)
15.04.2011 10:00 7,5 C 63 % 1017,4 hPa 0,0 l/m NO 1,00 h 689 W/m 19,8 km/h (4 Bft)
15.04.2011 11:00 9,1 C 53 % 1017,5 hPa 0,0 l/m O-NO 0,92 h 796 W/m 20,2 km/h (4 Bft)
15.04.2011 12:00 10,4 C 47 % 1017,3 hPa 0,0 l/m O-NO 0,92 h 880 W/m 20,9 km/h (4 Bft)
15.04.2011 13:00 10,8 C 44 % 1017,2 hPa 0,0 l/m O-NO 0,58 h 602 W/m 20,8 km/h (4 Bft)
15.04.2011 14:00 10,6 C 45 % 1017,3 hPa 0,0 l/m O-NO 0,75 h 749 W/m 21,0 km/h (4 Bft)
15.04.2011 15:00 10,8 C 44 % 1017,0 hPa 0,0 l/m NO 0,58 h 487 W/m 19,4 km/h (3 Bft)
15.04.2011 16:00 10,9 C 44 % 1016,6 hPa 0,0 l/m NO 0,33 h 310 W/m 16,1 km/h (3 Bft)
15.04.2011 17:00 11,1 C 44 % 1016,7 hPa 0,0 l/m O-NO 0,58 h 318 W/m 18,0 km/h (3 Bft)
15.04.2011 18:00 10,5 C 46 % 1017,0 hPa 0,0 l/m NO 0,50 h 156 W/m 17,3 km/h (3 Bft)
15.04.2011 19:00 9,8 C 50 % 1017,3 hPa 0,0 l/m O-NO 0,17 h 38 W/m 14,8 km/h (3 Bft)
15.04.2011 20:00 8,3 C 58 % 1017,8 hPa 0,0 l/m O-NO 0,08 h 6 W/m 11,0 km/h (2 Bft)
15.04.2011 21:00 7,0 C 62 % 1018,4 hPa 0,0 l/m O-NO 0,00 h 0 W/m 8,2 km/h (2 Bft)
15.04.2011 22:00 6,1 C 66 % 1018,8 hPa 0,0 l/m O-NO 0,00 h 0 W/m 9,3 km/h (2 Bft)
15.04.2011 23:00 5,3 C 69 % 1018,9 hPa 0,0 l/m NO 0,00 h 0 W/m 10,5 km/h (2 Bft)
16.04.2011 00:00 4,4 C 73 % 1019,2 hPa 0,0 l/m O-NO 0,00 h 0 W/m 6,9 km/h (2 Bft)
16.04.2011 01:00 3,4 C 78 % 1019,0 hPa 0,0 l/m N-NO 0,00 h 0 W/m 6,4 km/h (2 Bft)
16.04.2011 02:00 2,4 C 83 % 1018,8 hPa 0,0 l/m N-NO 0,00 h 0 W/m 5,5 km/h (1 Bft)
16.04.2011 03:00 1,9 C 85 % 1018,6 hPa 0,0 l/m N 0,00 h 0 W/m 5,5 km/h (1 Bft)
16.04.2011 04:00 1,6 C 87 % 1018,6 hPa 0,0 l/m NO 0,00 h 0 W/m 5,9 km/h (2 Bft)
16.04.2011 05:00 1,0 C 89 % 1018,7 hPa 0,0 l/m N 0,00 h 0 W/m 5,3 km/h (1 Bft)
16.04.2011 06:00 0,7 C 91 % 1018,9 hPa 0,0 l/m N 0,00 h 12 W/m 7,1 km/h (2 Bft)
16.04.2011 07:00 1,1 C 90 % 1019,4 hPa 0,0 l/m N-NO 0,75 h 115 W/m 8,0 km/h (2 Bft)
16.04.2011 08:00 3,2 C 85 % 1019,9 hPa 0,0 l/m O-NO 1,00 h 325 W/m 11,7 km/h (2 Bft)
16.04.2011 09:00 5,5 C 78 % 1020,0 hPa 0,0 l/m O-NO 1,00 h 523 W/m 14,2 km/h (3 Bft)
16.04.2011 10:00 7,9 C 69 % 1020,0 hPa 0,0 l/m O-NO 1,00 h 690 W/m 14,9 km/h (3 Bft)
16.04.2011 11:00 10,0 C 57 % 1020,0 hPa 0,0 l/m NO 1,00 h 810 W/m 18,6 km/h (3 Bft)
16.04.2011 12:00 11,5 C 52 % 1019,8 hPa 0,0 l/m NO 1,00 h 884 W/m 18,5 km/h (3 Bft)
16.04.2011 13:00 12,2 C 47 % 1019,4 hPa 0,0 l/m NO 0,67 h 636 W/m 16,6 km/h (3 Bft)
16.04.2011 14:00 13,3 C 41 % 1019,2 hPa 0,0 l/m O-SO 0,83 h 751 W/m 19,6 km/h (3 Bft)
16.04.2011 15:00 14,0 C 39 % 1019,0 hPa 0,0 l/m O 0,75 h 634 W/m 18,0 km/h (3 Bft)
16.04.2011 16:00 13,1 C 41 % 1018,7 hPa 0,0 l/m NO 0,08 h 248 W/m 17,6 km/h (3 Bft)
16.04.2011 17:00 13,1 C 40 % 1018,8 hPa 0,0 l/m O 0,25 h 198 W/m 14,5 km/h (3 Bft)
16.04.2011 18:00 12,4 C 42 % 1019,0 hPa 0,0 l/m O-NO 0,17 h 114 W/m 13,2 km/h (3 Bft)
16.04.2011 19:00 11,5 C 46 % 1019,2 hPa 0,0 l/m O-NO 0,00 h 35 W/m 12,9 km/h (3 Bft)
16.04.2011 20:00 10,2 C 51 % 1019,6 hPa 0,0 l/m O-NO 0,00 h 6 W/m 9,8 km/h (2 Bft)
16.04.2011 21:00 8,5 C 59 % 1020,1 hPa 0,0 l/m O-NO 0,00 h 0 W/m 4,8 km/h (1 Bft)
16.04.2011 22:00 7,1 C 65 % 1020,3 hPa 0,0 l/m NO 0,00 h 0 W/m 4,0 km/h (1 Bft)
16.04.2011 23:00 7,0 C 66 % 1020,4 hPa 0,0 l/m N 0,00 h 0 W/m 5,6 km/h (1 Bft)
17.04.2011 00:00 6,7 C 66 % 1020,5 hPa 0,0 l/m N 0,00 h 0 W/m 5,3 km/h (1 Bft)
17.04.2011 01:00 6,2 C 69 % 1020,5 hPa 0,0 l/m N 0,00 h 0 W/m 4,5 km/h (1 Bft)
17.04.2011 02:00 5,0 C 72 % 1020,3 hPa 0,0 l/m N 0,00 h 0 W/m 5,5 km/h (1 Bft)
17.04.2011 03:00 3,8 C 78 % 1020,3 hPa 0,0 l/m N 0,00 h 0 W/m 4,9 km/h (1 Bft)
17.04.2011 04:00 3,2 C 79 % 1020,3 hPa 0,0 l/m N 0,00 h 0 W/m 5,1 km/h (1 Bft)
17.04.2011 05:00 2,6 C 81 % 1020,5 hPa 0,0 l/m N 0,00 h 0 W/m 6,0 km/h (2 Bft)
17.04.2011 06:00 2,2 C 83 % 1020,7 hPa 0,0 l/m N 0,08 h 13 W/m 4,4 km/h (1 Bft)
17.04.2011 07:00 2,8 C 81 % 1021,2 hPa 0,0 l/m N 0,75 h 114 W/m 4,9 km/h (1 Bft)
17.04.2011 08:00 5,1 C 74 % 1021,5 hPa 0,0 l/m N 1,00 h 321 W/m 7,2 km/h (2 Bft)
17.04.2011 09:00 7,9 C 65 % 1021,6 hPa 0,0 l/m NO 1,00 h 518 W/m 9,3 km/h (2 Bft)
17.04.2011 10:00 10,1 C 58 % 1021,8 hPa 0,0 l/m O 1,00 h 658 W/m 12,4 km/h (3 Bft)
17.04.2011 11:00 11,6 C 53 % 1021,9 hPa 0,0 l/m NO 1,00 h 795 W/m 13,8 km/h (3 Bft)
17.04.2011 12:00 13,3 C 44 % 1021,7 hPa 0,0 l/m NO 1,00 h 867 W/m 14,8 km/h (3 Bft)
17.04.2011 13:00 14,5 C 40 % 1021,0 hPa 0,0 l/m O-NO 1,00 h 849 W/m 13,7 km/h (3 Bft)
17.04.2011 14:00 14,6 C 42 % 1020,6 hPa 0,0 l/m NO 1,00 h 827 W/m 15,4 km/h (3 Bft)
17.04.2011 15:00 14,9 C 41 % 1020,3 hPa 0,0 l/m O 0,92 h 655 W/m 15,7 km/h (3 Bft)
17.04.2011 16:00 15,2 C 39 % 1019,9 hPa 0,0 l/m O-SO 0,83 h 519 W/m 12,6 km/h (3 Bft)
17.04.2011 17:00 15,4 C 38 % 1019,8 hPa 0,0 l/m O-NO 1,00 h 395 W/m 11,3 km/h (2 Bft)
17.04.2011 18:00 15,1 C 39 % 1019,8 hPa 0,0 l/m O 1,00 h 212 W/m 11,8 km/h (2 Bft)
17.04.2011 19:00 14,0 C 43 % 1019,8 hPa 0,0 l/m O 0,08 h 43 W/m 9,8 km/h (2 Bft)
17.04.2011 20:00 11,9 C 50 % 1020,1 hPa 0,0 l/m O-NO 0,00 h 7 W/m 4,3 km/h (1 Bft)
17.04.2011 21:00 9,2 C 62 % 1020,7 hPa 0,0 l/m N 0,00 h 0 W/m 1,7 km/h (1 Bft)
17.04.2011 22:00 7,6 C 68 % 1020,8 hPa 0,0 l/m N 0,00 h 0 W/m 2,1 km/h (1 Bft)
17.04.2011 23:00 6,7 C 71 % 1020,8 hPa 0,0 l/m N-NO 0,00 h 0 W/m 4,1 km/h (1 Bft)
Min-Datum _ 14.04.11 11.04.11 14.04.11 - - - - 11.04.11
_ Min-Zeit 04:30 16:45 17:35 - - - - 00:00
Minimum _ -0,7 C 24 % 1014,9 hPa - - - - 0,0 km/h (0 Bft)
Max-Datum _ 11.04.11 15.04.11 12.04.11 11.04.11 - 11.04.11 13.04.11 12.04.11
_ Max-Zeit 17:10 06:10 23:05 00:00 - 07:50 13:20 18:35
Maximum _ 21,3 C 92 % 1023,7 hPa 0,0 l/m - 0,08 h 1020 W/m 45,1 km/h
N-NW (6 Bft)
Durchschnitt _ 7,8 C 65 % 1019,2 hPa #0,0 l/m O-NO #48:25 h 334 W/m 9,8 km/h (2 Bft)